Klamath, California
Current Conditions -  °F | °C
As of 9:56 PM on Saturday 22 Nov 2014 (Local Time) from KCEC Reporting Station
Few Clouds Few Clouds  
Wind Chill: 47°   Ceiling: Unl
Heat Index: 49°   Visibility: 10mi
Dew Point: 48°   Wind: 6mph
Humidity: 97%   Direction: 100°E
Pressure: 30.32"   Gusts: NA
Location:  41.53°N, 124.04°W
Report Text: KCEC 230556Z AUTO 10005KT 10SM FEW026 09/09 A3032 RMK AO2 SLP267 60004 T00940089 10133 20094 51018
Loading
Personal Weather Stations






























Interactive Weather Map New forecast layout! Learn more

10-Day Weather Forecast

Advertisements
Track Severe Weather on mobile